Time;durP1;ratioP1;P1;durP2;ratioP2;P2;SDS_P1;SDS_P2;PMS_P1;PMS_P2;Temp;Humidity;BMP_temperature;BMP_pressure;BME280_temperature;BME280_humidity;BME280_pressure;Samples;Min_cycle;Max_cycle;Signal;HPM_P1;HPM_P2
2021/12/16 00:02:08;;;;;;;396.45;287.40;;;;;;;24.38;38.18;103053.59;5057179;28;20044;-41
2021/12/16 00:07:22;;;;;;;395.75;283.90;;;;;;;24.39;37.75;103052.75;5064309;28;20060;-41
2021/12/16 00:32:20;;;;;;;415.35;299.52;;;;;;;24.28;38.19;103066.28;5063996;28;20464;-41
2021/12/16 00:34:50;;;;;;;416.27;299.38;;;;;;;24.34;38.24;103059.53;5063706;28;20460;-42
2021/12/16 00:37:19;;;;;;;420.52;303.60;;;;;;;24.36;38.22;103064.00;5063655;28;20077;-40
2021/12/16 00:39:48;;;;;;;401.90;292.17;;;;;;;24.37;38.08;103071.03;5063772;28;20040;-42
2021/12/16 00:45:42;;;;;;;406.25;295.70;;;;;;;24.28;38.53;103062.78;5063901;28;20033;-41
2021/12/16 00:48:09;;;;;;;415.20;297.45;;;;;;;24.32;38.62;103058.53;5059571;28;20049;-41
2021/12/16 00:55:53;;;;;;;411.00;300.33;;;;;;;24.28;38.57;103057.53;5058845;28;20044;-42
2021/12/16 00:58:28;;;;;;;423.02;305.50;;;;;;;24.30;38.25;103053.25;5063701;28;20036;-41
2021/12/16 01:01:06;;;;;;;410.92;301.48;;;;;;;24.27;38.62;103053.09;5063574;28;20028;-42
2021/12/16 01:03:44;;;;;;;416.55;300.77;;;;;;;24.29;38.17;103048.81;5063250;28;20029;-42
2021/12/16 01:37:21;;;;;;;414.80;308.85;;;;;;;24.30;38.58;103055.88;5067236;28;20335;-42
2021/12/16 01:49:03;;;;;;;418.08;311.48;;;;;;;24.21;38.60;103051.09;5066759;28;20036;-41
2021/12/16 01:50:53;;;;;;;417.75;314.25;;;;;;;24.22;38.60;103062.47;5066778;28;20443;-41
2021/12/16 01:59:01;;;;;;;429.85;319.52;;;;;;;24.19;38.61;103068.50;5058617;28;20136;-43
2021/12/16 02:01:33;;;;;;;435.45;316.00;;;;;;;24.15;38.47;103060.44;5066177;28;20058;-42
2021/12/16 02:04:13;;;;;;;426.00;313.65;;;;;;;24.15;38.44;103066.56;5066524;28;20032;-42
2021/12/16 02:09:22;;;;;;;418.33;310.27;;;;;;;24.11;38.91;103065.53;5066931;28;20514;-41
2021/12/16 02:36:37;;;;;;;426.27;320.27;;;;;;;24.23;38.48;103080.00;5061783;28;20044;-41
2021/12/16 02:39:15;;;;;;;435.30;322.33;;;;;;;24.11;38.66;103094.38;5066173;28;20036;-41
2021/12/16 02:41:47;;;;;;;440.52;322.67;;;;;;;24.04;39.04;103100.13;5065658;28;20131;-41
2021/12/16 02:49:34;;;;;;;441.08;324.58;;;;;;;24.03;38.90;103086.97;5057928;28;20119;-42
2021/12/16 02:52:03;;;;;;;442.33;323.48;;;;;;;24.02;38.80;103099.16;5065555;28;20095;-42
2021/12/16 02:54:32;;;;;;;438.20;323.33;;;;;;;24.05;39.08;103095.81;5063501;28;20051;-42
2021/12/16 02:57:01;;;;;;;434.40;317.00;;;;;;;24.04;38.69;103094.00;5065437;28;20032;-41
2021/12/16 02:59:30;;;;;;;438.00;321.33;;;;;;;24.05;38.63;103093.19;5065356;28;20463;-42
2021/12/16 03:02:07;;;;;;;434.38;320.58;;;;;;;24.00;39.13;103089.44;5065208;28;20078;-41
2021/12/16 03:04:37;;;;;;;436.85;323.55;;;;;;;24.06;38.79;103081.88;5065735;28;20028;-42
2021/12/16 03:07:06;;;;;;;428.80;320.48;;;;;;;24.11;38.50;103093.44;5065420;28;20090;-42
2021/12/16 03:13:11;;;;;;;433.58;319.73;;;;;;;24.04;38.93;103089.66;5061852;28;20037;-42
2021/12/16 03:18:02;;;;;;;434.77;325.50;;;;;;;24.00;38.97;103087.72;5065265;28;20455;-42
2021/12/16 03:26:00;;;;;;;436.02;321.60;;;;;;;23.87;39.07;103085.31;5065451;28;20028;-41
2021/12/16 03:34:13;;;;;;;432.65;320.02;;;;;;;23.94;38.82;103079.53;5064320;28;20040;-42
2021/12/16 03:37:20;;;;;;;425.02;316.35;;;;;;;23.94;38.75;103074.31;5064878;28;20028;-41
2021/12/16 03:39:50;;;;;;;431.08;321.27;;;;;;;23.98;38.59;103081.53;5064060;28;20456;-42
2021/12/16 03:42:34;;;;;;;431.50;320.58;;;;;;;23.95;38.74;103078.72;5064639;28;20028;-41
2021/12/16 03:48:07;;;;;;;443.27;325.38;;;;;;;24.02;38.47;103064.19;5060796;28;20040;-41
2021/12/16 03:50:36;;;;;;;438.20;324.02;;;;;;;24.01;38.86;103065.91;5064396;28;20147;-41
2021/12/16 03:53:06;;;;;;;443.60;324.27;;;;;;;23.93;39.23;103068.16;5064353;28;20058;-42
2021/12/16 03:55:35;;;;;;;438.95;324.35;;;;;;;23.91;39.26;103077.66;5064595;28;20040;-41
2021/12/16 03:58:03;;;;;;;444.30;323.17;;;;;;;23.96;38.85;103077.91;5064427;28;20031;-41
2021/12/16 04:00:37;;;;;;;447.42;331.33;;;;;;;23.87;39.12;103078.38;5064683;28;20024;-42
2021/12/16 04:03:06;;;;;;;441.33;329.50;;;;;;;23.93;39.12;103080.38;5062762;28;20028;-42
2021/12/16 04:05:35;;;;;;;426.92;317.05;;;;;;;23.93;39.13;103080.38;5064315;28;20025;-42
2021/12/16 04:08:04;;;;;;;435.90;323.75;;;;;;;23.90;38.83;103083.75;5064322;28;20164;-42
2021/12/16 04:10:38;;;;;;;437.70;327.55;;;;;;;23.89;38.87;103079.34;5063059;28;20055;-41
2021/12/16 04:13:08;;;;;;;448.13;332.10;;;;;;;23.99;38.59;103091.19;5064033;28;20035;-42
2021/12/16 04:15:37;;;;;;;448.38;328.10;;;;;;;24.01;38.76;103091.25;5064349;28;20343;-42
2021/12/16 04:18:06;;;;;;;448.40;332.08;;;;;;;23.88;38.52;103066.13;5063838;28;20037;-42
2021/12/16 04:20:36;;;;;;;451.25;337.77;;;;;;;24.02;39.05;103096.53;5064258;28;20028;-42
2021/12/16 04:23:06;;;;;;;451.08;334.17;;;;;;;24.01;38.76;103093.88;5063963;28;20275;-42
2021/12/16 04:25:39;;;;;;;446.20;328.80;;;;;;;23.94;38.67;103093.53;5063751;28;20040;-42
2021/12/16 04:28:12;;;;;;;443.42;327.27;;;;;;;23.88;39.06;103097.59;5063765;28;20419;-42
2021/12/16 04:30:41;;;;;;;442.02;326.73;;;;;;;23.92;38.83;103094.31;5064035;28;20463;-42
2021/12/16 04:33:10;;;;;;;457.60;338.17;;;;;;;23.90;38.96;103093.31;5063722;28;20056;-41
2021/12/16 04:35:40;;;;;;;450.30;328.80;;;;;;;23.82;39.25;103099.13;5063633;28;20032;-41
2021/12/16 04:38:10;;;;;;;438.60;328.10;;;;;;;23.89;38.80;103096.78;5063661;28;20020;-42
2021/12/16 04:40:39;;;;;;;445.02;328.05;;;;;;;23.93;38.71;103094.34;5063699;28;20083;-42
2021/12/16 04:43:08;;;;;;;449.38;328.27;;;;;;;23.92;38.88;103102.16;5063165;28;20458;-41
2021/12/16 04:45:36;;;;;;;444.80;326.92;;;;;;;23.92;38.54;103100.41;5062237;28;20500;-43
2021/12/16 04:48:06;;;;;;;444.75;329.27;;;;;;;23.81;38.61;103080.69;5064117;28;20401;-42
2021/12/16 04:50:35;;;;;;;437.60;325.20;;;;;;;23.75;38.99;103097.03;5063666;28;20086;-42
2021/12/16 04:53:02;;;;;;;445.60;332.80;;;;;;;23.91;39.02;103103.00;5061766;28;20489;-42
2021/12/16 04:55:31;;;;;;;442.17;331.33;;;;;;;23.79;39.36;103105.91;5063624;28;20029;-42
2021/12/16 04:58:00;;;;;;;443.15;323.67;;;;;;;23.79;39.04;103103.28;5063532;28;20036;-42
2021/12/16 05:00:28;;;;;;;444.40;335.40;;;;;;;23.83;39.21;103103.50;5062803;28;20028;-42
2021/12/16 05:02:57;;;;;;;448.65;334.85;;;;;;;23.74;39.38;103099.59;5063591;28;20078;-42
2021/12/16 05:05:26;;;;;;;464.75;339.60;;;;;;;23.80;39.39;103100.78;5063199;28;20098;-42
2021/12/16 05:07:55;;;;;;;439.45;325.65;;;;;;;23.82;38.93;103096.50;5063319;28;20496;-41
2021/12/16 05:10:22;;;;;;;441.55;328.85;;;;;;;23.70;39.21;103077.56;5063340;28;20028;-42
2021/12/16 05:12:54;;;;;;;440.98;328.63;;;;;;;23.87;38.79;103101.03;5063292;28;20121;-42
2021/12/16 05:15:29;;;;;;;447.00;326.85;;;;;;;23.75;39.00;103098.72;5063535;28;20028;-42
2021/12/16 05:17:59;;;;;;;;;;;;;;;23.84;38.97;103109.66;5063690;28;20119;-42
2021/12/16 05:20:31;;;;;;;439.65;317.90;;;;;;;23.76;38.82;103095.28;5063022;28;19924;-41
2021/12/16 05:26:32;;;;;;;448.40;326.95;;;;;;;23.89;38.54;103107.25;5056920;28;20048;-42
2021/12/16 05:28:38;;;;;;;444.05;326.25;;;;;;;23.78;38.91;103106.75;5058953;28;20050;-42
2021/12/16 05:31:06;;;;;;;428.83;324.98;;;;;;;23.76;38.88;103104.06;5062865;28;20030;-42
2021/12/16 05:33:34;;;;;;;455.33;331.00;;;;;;;23.70;38.90;103113.34;5063131;28;20085;-43
2021/12/16 05:36:03;;;;;;;437.75;322.17;;;;;;;23.68;39.15;103121.13;5062940;28;20064;-41
2021/12/16 05:38:32;;;;;;;431.65;319.40;;;;;;;23.66;39.33;103114.94;5062837;28;20055;-42
2021/12/16 05:41:02;;;;;;;442.27;326.17;;;;;;;23.71;39.24;103113.41;5063244;28;20478;-41
2021/12/16 05:43:32;;;;;;;436.67;324.20;;;;;;;23.66;39.31;103107.97;5063267;28;20070;-41
2021/12/16 05:46:01;;;;;;;437.73;322.67;;;;;;;23.60;39.09;103112.88;5063206;28;20083;-41
2021/12/16 05:48:35;;;;;;;442.88;329.90;;;;;;;23.65;38.93;103106.16;5061801;28;20483;-41
2021/12/16 05:51:08;;;;;;;453.85;329.10;;;;;;;23.64;38.88;103119.19;5062586;28;20119;-41
2021/12/16 05:53:37;;;;;;;452.38;332.85;;;;;;;23.70;38.90;103113.34;5062718;28;20107;-41
2021/12/16 05:56:06;;;;;;;456.38;335.35;;;;;;;23.73;39.05;103122.25;5062330;28;20107;-41
2021/12/16 05:58:36;;;;;;;461.35;340.88;;;;;;;23.87;39.00;103114.16;5062947;28;20032;-43
2021/12/16 06:01:10;;;;;;;457.13;340.17;;;;;;;23.75;38.82;103109.22;5062894;28;20044;-42
2021/12/16 06:03:39;;;;;;;448.95;331.00;;;;;;;23.65;39.37;103118.38;5063107;28;20640;-42
2021/12/16 06:06:07;;;;;;;467.10;346.50;;;;;;;23.80;39.04;103111.25;5062595;28;20048;-42
2021/12/16 06:08:36;;;;;;;453.23;336.67;;;;;;;23.70;39.24;103108.09;5060791;28;20098;-42
2021/12/16 06:13:39;;;;;;;455.42;342.90;;;;;;;23.85;38.89;103098.34;5066355;28;20491;-43
2021/12/16 06:29:28;;;;;;;473.70;352.02;;;;;;;23.77;39.05;103104.94;5066070;28;20115;-42
2021/12/16 06:31:56;;;;;;;466.60;339.33;;;;;;;23.75;39.10;103102.25;5066082;28;20020;-42
2021/12/16 06:34:25;;;;;;;455.45;342.50;;;;;;;23.75;39.28;103103.97;5064699;28;20417;-42
2021/12/16 06:36:54;;;;;;;460.23;340.40;;;;;;;23.80;39.08;103112.97;5066263;28;20041;-42
2021/12/16 06:39:22;;;;;;;463.70;342.30;;;;;;;23.75;39.49;103103.97;5065978;28;20382;-41
2021/12/16 06:41:51;;;;;;;457.75;348.38;;;;;;;23.77;39.53;103104.94;5064425;28;20024;-42
2021/12/16 06:44:29;;;;;;;460.95;351.85;;;;;;;23.82;39.03;103098.22;5065825;28;20097;-42
2021/12/16 06:47:04;;;;;;;458.10;341.15;;;;;;;23.76;39.11;103108.38;5065741;28;20032;-42
2021/12/16 06:49:35;;;;;;;465.90;346.38;;;;;;;23.70;39.51;103100.25;5064449;28;20028;-43
2021/12/16 06:52:05;;;;;;;454.30;342.58;;;;;;;23.79;39.62;103104.22;5051533;28;20020;-43
2021/12/16 06:54:51;;;;;;;468.02;347.77;;;;;;;23.94;38.83;103109.25;5065484;28;20394;-42
2021/12/16 06:57:26;;;;;;;468.67;352.27;;;;;;;23.70;39.33;103100.25;5065900;28;20410;-42
2021/12/16 07:00:07;;;;;;;462.50;345.75;;;;;;;23.77;39.37;103103.25;5065697;28;20169;-42
2021/12/16 07:05:06;;;;;;;473.70;357.45;;;;;;;23.85;39.01;103111.47;5065460;28;20063;-46
2021/12/16 07:07:35;;;;;;;445.17;340.35;;;;;;;23.81;39.14;103101.66;5063783;28;20123;-42
2021/12/16 07:10:06;;;;;;;455.27;332.90;;;;;;;23.59;39.33;103100.63;5065294;28;20086;-42
2021/12/16 07:12:36;;;;;;;432.40;318.40;;;;;;;23.62;39.16;103097.25;5065294;28;20655;-42
2021/12/16 07:15:08;;;;;;;427.73;311.50;;;;;;;23.56;39.06;103110.06;5065525;28;20112;-45
2021/12/16 07:17:38;;;;;;;420.98;310.40;;;;;;;23.45;38.90;103110.44;5065040;28;20039;-41
2021/12/16 07:20:08;;;;;;;420.45;304.65;;;;;;;23.48;39.30;103113.22;5064744;28;20028;-43
2021/12/16 07:22:37;;;;;;;418.42;299.77;;;;;;;23.49;38.95;103117.63;5064450;28;20032;-42
2021/12/16 07:25:06;;;;;;;404.40;295.00;;;;;;;23.50;39.13;103113.28;5064720;28;20033;-45
2021/12/16 07:27:36;;;;;;;407.95;298.20;;;;;;;23.43;38.73;103108.53;5063306;28;20028;-42
2021/12/16 07:30:08;;;;;;;397.38;288.52;;;;;;;23.36;38.78;103113.50;5064849;28;20028;-42
2021/12/16 07:32:37;;;;;;;397.58;284.52;;;;;;;23.50;38.75;103114.16;5064803;28;20020;-42
2021/12/16 07:35:09;;;;;;;401.60;285.05;;;;;;;23.52;38.40;103115.13;5064754;28;20115;-42
2021/12/16 07:37:38;;;;;;;400.50;284.15;;;;;;;23.54;38.40;103124.78;5064947;28;20071;-42
2021/12/16 07:40:08;;;;;;;391.50;276.48;;;;;;;23.51;38.98;103117.69;5064675;28;20037;-42
2021/12/16 07:42:58;;;;;;;384.92;277.48;;;;;;;23.56;38.76;103125.78;5064694;28;20029;-43
2021/12/16 07:45:24;;;;;;;393.83;275.38;;;;;;;23.50;38.79;103116.78;5064240;28;20490;-44
2021/12/16 07:47:52;;;;;;;393.67;276.65;;;;;;;23.54;38.60;103116.94;5064299;28;20032;-43
2021/12/16 07:50:22;;;;;;;387.58;268.00;;;;;;;23.47;38.79;103116.66;5064807;28;20071;-42
2021/12/16 07:52:50;;;;;;;398.27;277.77;;;;;;;23.51;38.88;103120.31;5064788;28;20095;-42
2021/12/16 07:55:20;;;;;;;392.35;279.33;;;;;;;23.30;39.44;103118.41;5064317;28;20535;-42
2021/12/16 07:57:49;;;;;;;385.58;270.15;;;;;;;23.37;39.00;103124.88;5064196;28;20055;-42
2021/12/16 08:00:22;;;;;;;378.65;269.65;;;;;;;23.45;38.84;103128.78;5064423;28;20027;-42
2021/12/16 08:02:51;;;;;;;385.98;261.67;;;;;;;23.47;39.08;103127.13;5064427;28;20024;-43
2021/12/16 08:05:22;;;;;;;380.35;268.02;;;;;;;23.47;38.78;103132.38;5064450;28;20112;-42
2021/12/16 08:07:51;;;;;;;383.48;270.80;;;;;;;23.45;39.05;103138.34;5064359;28;20056;-42
2021/12/16 08:10:22;;;;;;;383.27;265.20;;;;;;;23.47;38.98;103137.63;5064268;28;20044;-42
2021/12/16 08:12:52;;;;;;;384.25;268.67;;;;;;;23.47;38.96;103140.22;5062874;28;20024;-42
2021/12/16 08:15:21;;;;;;;369.83;260.83;;;;;;;23.46;38.77;103140.13;5064349;28;20028;-42
2021/12/16 08:17:50;;;;;;;346.85;248.85;;;;;;;23.45;39.12;103141.88;5063771;28;20045;-43
2021/12/16 08:20:19;;;;;;;340.13;235.80;;;;;;;23.43;38.68;103151.38;5063683;28;20029;-42
2021/12/16 08:22:50;;;;;;;333.17;230.18;;;;;;;23.45;38.61;103152.34;5062243;28;20024;-42
2021/12/16 08:25:21;;;;;;;330.08;228.35;;;;;;;23.41;38.69;103155.63;5063600;28;20039;-43
2021/12/16 08:27:50;;;;;;;320.05;225.02;;;;;;;23.55;38.55;103150.16;5063278;28;20152;-42
2021/12/16 08:30:21;;;;;;;327.02;221.27;;;;;;;23.40;38.66;103156.44;5063574;28;20063;-42
2021/12/16 08:32:50;;;;;;;329.10;229.52;;;;;;;23.41;38.93;103165.22;5062706;28;20367;-42
2021/12/16 08:35:19;;;;;;;317.75;219.65;;;;;;;23.44;38.43;103171.50;5063374;28;20028;-42
2021/12/16 08:37:48;;;;;;;328.35;225.32;;;;;;;23.49;38.72;103177.88;5063751;28;20085;-42
2021/12/16 08:40:20;;;;;;;333.40;226.25;;;;;;;23.49;38.55;103180.50;5063758;28;20385;-42
2021/12/16 08:42:48;;;;;;;339.40;233.95;;;;;;;23.48;39.06;103194.44;5061873;28;20089;-42
2021/12/16 08:45:24;;;;;;;353.90;235.23;;;;;;;23.48;38.90;103190.88;5062336;28;20158;-42
2021/12/16 08:47:52;;;;;;;345.83;237.45;;;;;;;23.49;38.71;103185.75;5063989;28;20025;-42
2021/12/16 08:50:23;;;;;;;347.05;239.00;;;;;;;23.59;38.61;103191.44;5063847;28;20032;-42
2021/12/16 08:52:51;;;;;;;356.55;243.63;;;;;;;23.55;38.65;103189.47;5062449;28;20115;-42
2021/12/16 08:55:20;;;;;;;354.63;242.35;;;;;;;23.58;38.31;103192.25;5063193;28;20033;-42
2021/12/16 08:57:49;;;;;;;347.88;237.45;;;;;;;23.56;38.73;103188.66;5063240;28;20028;-42
2021/12/16 09:00:26;;;;;;;345.80;239.98;;;;;;;23.49;38.61;103183.13;5062279;28;20470;-43
2021/12/16 09:02:55;;;;;;;342.30;236.18;;;;;;;23.63;38.50;103196.00;5063317;28;20040;-42
2021/12/16 09:05:24;;;;;;;337.23;240.23;;;;;;;23.64;38.68;103197.81;5063077;28;20032;-42
2021/12/16 09:07:53;;;;;;;350.02;240.43;;;;;;;23.60;38.91;103201.09;5031282;28;20079;-41
2021/12/16 09:10:27;;;;;;;339.05;240.48;;;;;;;23.45;38.77;103204.75;5047253;28;20174;-41
2021/12/16 09:13:03;;;;;;;352.30;244.10;;;;;;;23.51;38.82;103207.66;5063432;28;20062;-41
2021/12/16 09:15:36;;;;;;;344.42;235.23;;;;;;;23.49;38.99;103198.84;5063709;28;20028;-41
2021/12/16 09:18:05;;;;;;;350.20;241.07;;;;;;;23.47;38.78;103205.72;5062956;28;20040;-42
2021/12/16 09:20:34;;;;;;;354.08;243.75;;;;;;;23.52;38.65;103198.09;5063202;28;20035;-41
2021/12/16 09:23:03;;;;;;;365.02;244.50;;;;;;;23.52;38.70;103209.44;5063010;28;20036;-42
2021/12/16 09:25:32;;;;;;;351.25;242.45;;;;;;;23.48;38.77;103204.00;5063426;28;20073;-41
2021/12/16 09:28:01;;;;;;;358.33;244.55;;;;;;;23.57;38.80;103214.03;5063069;28;20101;-42
2021/12/16 09:33:54;;;;;;;358.25;245.10;;;;;;;23.61;38.98;103209.00;5062383;28;20225;-42
2021/12/16 09:36:25;;;;;;;365.48;248.45;;;;;;;23.65;38.61;103210.97;5062971;28;20105;-41
2021/12/16 09:38:56;;;;;;;359.25;243.35;;;;;;;23.60;39.06;103215.06;5062621;28;20036;-42
2021/12/16 09:41:27;;;;;;;351.20;243.80;;;;;;;23.61;38.63;103218.63;5063128;28;20630;-41
2021/12/16 09:43:57;;;;;;;346.50;236.52;;;;;;;23.62;38.83;103215.16;5063058;28;20097;-42
2021/12/16 09:46:28;;;;;;;345.85;239.48;;;;;;;23.75;38.84;103214.94;5064801;28;20035;-42
2021/12/16 09:48:57;;;;;;;335.48;230.25;;;;;;;23.76;38.45;103222.00;5067100;28;20398;-41
2021/12/16 09:51:28;;;;;;;337.33;228.93;;;;;;;23.66;38.61;103214.50;5065851;28;20028;-41
2021/12/16 09:54:04;;;;;;;331.02;226.98;;;;;;;23.71;38.23;103213.00;5066836;28;20140;-42
2021/12/16 09:56:33;;;;;;;324.85;224.38;;;;;;;23.72;38.25;103216.53;5064820;28;20120;-41
2021/12/16 09:59:04;;;;;;;327.15;220.98;;;;;;;23.71;38.36;103225.22;5066654;28;20289;-41
2021/12/16 10:01:33;;;;;;;306.83;215.73;;;;;;;23.64;38.56;103226.63;5066862;28;20067;-42
2021/12/16 10:04:04;;;;;;;317.23;216.45;;;;;;;23.65;38.64;103229.31;5066631;28;20103;-41
2021/12/16 10:06:36;;;;;;;311.95;213.57;;;;;;;23.66;38.49;103228.50;5066196;28;20405;-41
2021/12/16 10:09:07;;;;;;;309.77;213.70;;;;;;;23.64;38.50;103239.72;5066191;28;20039;-42
2021/12/16 10:11:37;;;;;;;297.17;207.73;;;;;;;23.68;38.28;103236.41;5066557;28;20111;-42
2021/12/16 10:14:21;;;;;;;298.02;207.40;;;;;;;23.68;38.18;103239.03;5064929;28;20029;-42
2021/12/16 10:17:32;;;;;;;296.50;210.05;;;;;;;23.76;38.09;103245.59;5066230;28;20044;-41
2021/12/16 10:19:37;;;;;;;299.38;206.57;;;;;;;23.65;38.35;103247.66;5062860;28;20051;-42
2021/12/16 10:22:26;;;;;;;300.00;205.55;;;;;;;23.71;38.43;103244.44;5066269;28;20064;-41
2021/12/16 10:24:58;;;;;;;286.55;198.23;;;;;;;23.70;38.14;103240.03;5060245;28;20064;-42
2021/12/16 10:27:28;;;;;;;270.08;193.77;;;;;;;23.71;38.28;103238.31;5065983;28;20211;-42
2021/12/16 10:30:07;;;;;;;273.23;187.50;;;;;;;23.75;37.86;103243.78;5066229;28;20036;-41
2021/12/16 10:32:37;;;;;;;271.58;186.75;;;;;;;23.79;38.19;103250.06;5065783;28;20401;-42
2021/12/16 10:35:11;;;;;;;264.88;182.45;;;;;;;23.75;37.81;103243.78;5065898;28;20462;-43
2021/12/16 10:37:43;;;;;;;251.50;177.82;;;;;;;23.78;38.04;103240.41;5065309;28;20044;-42
2021/12/16 10:40:50;;;;;;;261.75;176.32;;;;;;;23.71;38.16;103240.94;5064648;28;20123;-42
2021/12/16 10:43:29;;;;;;;250.57;169.95;;;;;;;23.87;37.54;103242.59;5056411;28;20045;-42
2021/12/16 10:46:18;;;;;;;240.95;165.48;;;;;;;23.85;37.95;103242.53;5066275;28;20028;-44
2021/12/16 10:48:49;;;;;;;235.07;167.20;;;;;;;23.73;37.73;103231.44;5060716;28;20405;-42
2021/12/16 10:51:21;;;;;;;246.70;168.02;;;;;;;23.97;37.26;103239.66;5065945;28;20047;-42
2021/12/16 10:53:57;;;;;;;228.90;164.45;;;;;;;24.07;37.53;103231.41;5065547;28;20470;-45
2021/12/16 10:56:37;;;;;;;233.07;159.30;;;;;;;23.95;37.50;103236.00;5065759;28;20032;-42
2021/12/16 10:59:14;;;;;;;220.82;152.38;;;;;;;23.76;37.54;103232.47;5064990;28;20098;-42
2021/12/16 11:01:43;;;;;;;219.30;150.43;;;;;;;23.82;37.50;103237.13;5048837;28;20052;-42
2021/12/16 11:04:17;;;;;;;218.77;148.73;;;;;;;23.81;37.36;103230.06;5065607;28;20025;-41
2021/12/16 11:06:51;;;;;;;201.32;140.32;;;;;;;23.79;37.80;103230.03;5065368;28;20049;-42
2021/12/16 11:09:23;;;;;;;202.90;137.77;;;;;;;23.75;37.70;103221.91;5065518;28;20497;-42
2021/12/16 11:12:30;;;;;;;191.93;136.70;;;;;;;23.70;37.31;103216.44;5065504;28;20028;-41
2021/12/16 11:15:18;;;;;;;189.43;130.13;;;;;;;23.75;37.70;103233.31;5053131;28;20036;-41
2021/12/16 11:17:55;;;;;;;195.60;135.10;;;;;;;23.73;37.32;103220.97;5065428;28;20504;-42
2021/12/16 11:20:35;;;;;;;189.48;132.10;;;;;;;23.71;37.75;103215.63;5065320;28;20033;-43
2021/12/16 11:23:10;;;;;;;190.88;130.50;;;;;;;23.67;37.73;103219.81;5065105;28;20033;-43
2021/12/16 11:25:42;;;;;;;184.25;127.90;;;;;;;23.73;37.53;103219.22;5065165;28;20024;-42
2021/12/16 11:28:23;;;;;;;185.52;128.80;;;;;;;23.76;37.72;103222.00;5065233;28;20032;-42
2021/12/16 11:30:54;;;;;;;172.57;125.28;;;;;;;23.78;37.40;103220.34;5065104;28;20035;-42
2021/12/16 11:33:26;;;;;;;180.30;123.95;;;;;;;23.70;37.42;103218.19;5064852;28;20029;-42
2021/12/16 11:35:58;;;;;;;171.73;121.30;;;;;;;23.76;37.17;103219.38;5065173;28;20044;-42
2021/12/16 11:38:35;;;;;;;176.20;122.65;;;;;;;23.74;37.49;103215.78;5065036;28;20036;-41
2021/12/16 11:41:09;;;;;;;164.02;117.75;;;;;;;23.79;37.23;103216.00;5064873;28;20288;-45
2021/12/16 11:43:57;;;;;;;169.45;117.25;;;;;;;23.77;37.51;103218.56;5064590;28;20028;-42
2021/12/16 11:46:36;;;;;;;169.02;116.43;;;;;;;23.80;37.52;103213.47;5064863;28;20063;-42
2021/12/16 11:49:34;;;;;;;167.00;116.30;;;;;;;23.87;37.13;103205.88;5064263;28;20123;-41
2021/12/16 11:52:06;;;;;;;158.27;111.38;;;;;;;23.83;37.00;103207.47;5061593;28;20040;-42
2021/12/16 11:54:41;;;;;;;156.30;108.28;;;;;;;23.94;36.96;103203.63;5064834;28;20063;-42
2021/12/16 11:57:24;;;;;;;156.77;111.78;;;;;;;23.94;37.27;103210.63;5064059;28;20035;-41
2021/12/16 12:00:00;;;;;;;156.93;111.60;;;;;;;23.91;37.44;103205.22;5064676;28;20029;-42
2021/12/16 12:02:32;;;;;;;153.85;108.32;;;;;;;23.83;37.21;103195.25;5064575;28;20115;-41
2021/12/16 12:05:22;;;;;;;157.30;110.78;;;;;;;23.87;37.57;103200.66;5064312;28;20128;-41
2021/12/16 12:08:06;;;;;;;151.50;107.35;;;;;;;23.92;37.28;103207.03;5060022;28;20055;-41
2021/12/16 12:10:43;;;;;;;154.95;107.63;;;;;;;23.95;37.29;103210.69;5064092;28;20032;-41
2021/12/16 12:13:25;;;;;;;152.10;107.53;;;;;;;23.88;37.61;103197.19;5062606;28;20032;-41
2021/12/16 12:16:13;;;;;;;155.52;108.85;;;;;;;23.98;37.65;103202.13;5064195;28;20032;-41
2021/12/16 12:19:02;;;;;;;153.15;105.93;;;;;;;23.87;37.78;103206.81;5063772;28;20029;-40
2021/12/16 12:21:41;;;;;;;147.82;107.65;;;;;;;23.80;38.09;103202.06;5058349;28;20036;-40
2021/12/16 12:24:32;;;;;;;147.35;107.78;;;;;;;23.80;38.21;103203.00;5062371;28;20038;-41
2021/12/16 12:27:12;;;;;;;156.48;106.07;;;;;;;23.94;37.65;103195.78;5063429;28;20107;-44
2021/12/16 12:29:45;;;;;;;142.15;102.88;;;;;;;23.97;37.84;103197.69;5064498;28;20029;-41
2021/12/16 12:32:34;;;;;;;146.80;103.18;;;;;;;24.09;37.82;103197.38;5063982;28;20028;-42
2021/12/16 12:35:07;;;;;;;145.13;104.20;;;;;;;23.99;38.02;103195.13;5057939;28;20037;-41
2021/12/16 12:37:38;;;;;;;142.25;100.78;;;;;;;23.80;38.08;103194.22;5062398;28;20025;-42
2021/12/16 12:40:13;;;;;;;144.40;105.50;;;;;;;23.87;38.03;103183.22;5063665;28;20085;-41
2021/12/16 12:42:43;;;;;;;142.43;104.40;;;;;;;23.93;37.87;103190.47;5064051;28;20086;-42
2021/12/16 12:45:14;;;;;;;152.43;104.20;;;;;;;23.72;38.26;103161.50;5063440;28;20032;-42
2021/12/16 12:47:45;;;;;;;143.18;104.68;;;;;;;23.88;37.99;103186.72;5063563;28;20032;-42
2021/12/16 12:50:20;;;;;;;161.93;116.63;;;;;;;23.88;38.20;103181.47;5063609;28;20035;-42
2021/12/16 12:52:51;;;;;;;174.82;123.65;;;;;;;23.98;38.08;103181.16;5063735;28;20066;-42
2021/12/16 12:55:28;;;;;;;188.68;132.02;;;;;;;23.94;38.25;103190.53;5062230;28;20446;-42
2021/12/16 12:58:17;;;;;;;204.40;138.48;;;;;;;23.94;38.48;103187.03;5062986;28;20378;-42
2021/12/16 13:00:50;;;;;;;212.13;146.05;;;;;;;23.91;38.67;103186.88;5058231;28;20413;-41
2021/12/16 13:03:24;;;;;;;215.05;149.65;;;;;;;24.00;38.09;103181.22;5063763;28;20082;-41
2021/12/16 13:05:57;;;;;;;224.90;148.85;;;;;;;23.99;38.34;103185.56;5063492;28;20086;-42
2021/12/16 13:08:33;;;;;;;230.10;156.10;;;;;;;23.94;38.37;103176.53;5063245;28;20115;-42
2021/12/16 13:11:27;;;;;;;231.00;156.13;;;;;;;23.95;38.72;103171.34;5062977;28;20029;-42
2021/12/16 13:14:07;;;;;;;236.32;166.25;;;;;;;23.88;38.62;103174.53;5063420;28;20024;-41
2021/12/16 13:17:32;;;;;;;240.60;167.27;;;;;;;23.90;38.60;103174.59;5063119;28;20496;-41
2021/12/16 13:28:51;;;;;;;267.80;184.15;;;;;;;23.95;38.51;103160.88;5059317;28;20844;-42
2021/12/16 13:31:31;;;;;;;266.23;187.65;;;;;;;23.90;38.58;103158.84;5062910;28;20032;-42
2021/12/16 13:34:01;;;;;;;265.02;190.57;;;;;;;23.91;38.23;103151.06;5062601;28;20060;-42
2021/12/16 13:36:45;;;;;;;278.80;194.38;;;;;;;23.74;38.84;103141.50;5062804;28;20079;-41
2021/12/16 13:39:17;;;;;;;262.23;183.80;;;;;;;23.78;38.86;103149.59;5062952;28;20032;-41
2021/12/16 13:42:07;;;;;;;268.50;186.95;;;;;;;23.82;38.48;103143.69;5063107;28;20028;-42
2021/12/16 13:44:45;;;;;;;280.52;197.25;;;;;;;23.91;38.30;103139.69;5061162;28;20116;-42
2021/12/16 14:00:12;;;;;;;325.02;226.98;;;;;;;23.94;38.89;103126.72;5057631;28;20521;-42
2021/12/16 14:08:01;;;;;;;332.83;236.07;;;;;;;23.91;39.16;103131.81;5061443;28;20117;-41
2021/12/16 14:10:35;;;;;;;351.15;240.25;;;;;;;23.86;39.29;103138.56;5062696;28;20036;-41
2021/12/16 14:16:53;;;;;;;348.65;246.50;;;;;;;23.97;39.00;103137.41;5056962;28;20064;-42
2021/12/16 14:25:32;;;;;;;349.55;252.95;;;;;;;23.94;39.47;103139.84;5057681;28;20043;-41
2021/12/16 14:31:17;;;;;;;359.67;247.00;;;;;;;24.05;39.01;103140.38;5062522;28;20478;-42
2021/12/16 14:37:08;;;;;;;352.85;250.05;;;;;;;24.01;39.43;103144.56;5059334;28;20032;-42
2021/12/16 14:50:28;;;;;;;348.85;224.93;;;;;;;23.81;38.87;103141.88;5066238;28;20028;-42
2021/12/16 14:52:58;;;;;;;333.70;230.48;;;;;;;23.85;38.65;103156.03;5065064;28;20016;-41